createdAt,value
2019-05-13T00:02:04.724Z,8.00
2019-05-13T00:04:34.079Z,8.00
2019-05-13T00:07:04.630Z,8.00
2019-05-13T00:09:34.329Z,7.90
2019-05-13T00:12:04.740Z,7.90
2019-05-13T00:14:34.569Z,7.90
2019-05-13T00:17:04.527Z,7.90
2019-05-13T00:19:34.070Z,7.90
2019-05-13T00:22:03.956Z,7.80
2019-05-13T00:24:34.061Z,7.80
2019-05-13T00:27:04.096Z,7.80
2019-05-13T00:29:34.063Z,7.80
2019-05-13T00:32:04.980Z,7.70
2019-05-13T00:34:35.364Z,7.70
2019-05-13T00:37:11.254Z,7.70
2019-05-13T00:39:35.609Z,7.70
2019-05-13T00:42:04.890Z,7.60
2019-05-13T00:44:34.174Z,7.60
2019-05-13T00:47:04.428Z,7.60
2019-05-13T00:49:34.568Z,7.50
2019-05-13T00:52:05.146Z,7.50
2019-05-13T00:54:34.453Z,7.50
2019-05-13T00:57:04.412Z,7.40
2019-05-13T00:59:34.106Z,7.40
2019-05-13T01:02:03.987Z,7.40
2019-05-13T01:04:33.961Z,7.40
2019-05-13T01:07:04.336Z,7.30
2019-05-13T01:09:34.381Z,7.30
2019-05-13T01:12:04.405Z,7.30
2019-05-13T01:14:35.051Z,7.30
2019-05-13T01:17:04.510Z,7.20
2019-05-13T01:19:34.322Z,7.20
2019-05-13T01:22:03.758Z,7.10
2019-05-13T01:24:33.923Z,7.10
2019-05-13T01:27:04.078Z,7.10
2019-05-13T01:29:34.429Z,7.00
2019-05-13T01:32:04.577Z,7.00
2019-05-13T01:34:35.087Z,6.90
2019-05-13T01:37:04.525Z,6.90
2019-05-13T01:39:35.019Z,6.80
2019-05-13T01:42:05.448Z,6.80
2019-05-13T01:44:34.715Z,6.70
2019-05-13T01:47:04.709Z,6.60
2019-05-13T01:49:34.104Z,6.50
2019-05-13T01:52:03.970Z,6.40
2019-05-13T01:54:33.998Z,6.40
2019-05-13T01:57:04.709Z,6.30
2019-05-13T01:59:35.018Z,6.20
2019-05-13T02:02:05.134Z,6.20
2019-05-13T02:04:34.419Z,6.10
2019-05-13T02:07:04.245Z,6.00
2019-05-13T02:09:34.303Z,6.00
2019-05-13T02:12:04.862Z,5.90
2019-05-13T02:14:34.382Z,5.80
2019-05-13T02:17:04.397Z,5.80
2019-05-13T02:19:33.824Z,5.80
2019-05-13T02:22:04.000Z,5.70
2019-05-13T02:24:34.247Z,5.70
2019-05-13T02:27:04.036Z,5.60
2019-05-13T02:29:34.424Z,5.50
2019-05-13T02:32:05.273Z,5.40
2019-05-13T02:34:34.552Z,5.30
2019-05-13T02:37:04.828Z,5.30
2019-05-13T02:39:34.103Z,5.20
2019-05-13T02:42:04.036Z,5.20
2019-05-13T02:44:34.710Z,5.10
2019-05-13T02:47:04.228Z,5.10
2019-05-13T02:49:33.550Z,5.10
2019-05-13T02:52:03.358Z,5.00
2019-05-13T02:54:34.570Z,5.00
2019-05-13T02:57:04.337Z,5.00
2019-05-13T02:59:34.030Z,4.90
2019-05-13T03:02:04.522Z,4.80
2019-05-13T03:04:33.965Z,4.80
2019-05-13T03:07:03.400Z,4.70
2019-05-13T03:09:32.859Z,4.70
2019-05-13T03:12:04.357Z,4.60
2019-05-13T03:14:33.889Z,4.60
2019-05-13T03:17:04.823Z,4.50
2019-05-13T03:19:34.131Z,4.50
2019-05-13T03:22:03.516Z,4.40
2019-05-13T03:24:33.263Z,4.30
2019-05-13T03:27:02.931Z,4.20
2019-05-13T03:29:33.235Z,4.20
2019-05-13T03:32:06.352Z,4.20
2019-05-13T03:34:36.054Z,4.20
2019-05-13T03:37:06.454Z,4.10
2019-05-13T03:39:36.114Z,4.10
2019-05-13T03:42:05.395Z,4.10
2019-05-13T03:44:36.211Z,4.10
2019-05-13T03:47:07.024Z,4.00
2019-05-13T03:49:36.305Z,4.00
2019-05-13T03:52:05.589Z,4.00
2019-05-13T03:54:35.596Z,3.90
2019-05-13T03:57:05.239Z,3.90
2019-05-13T03:59:34.602Z,3.80
2019-05-13T04:02:04.156Z,3.80
2019-05-13T04:04:33.576Z,3.80
2019-05-13T04:07:03.159Z,3.80
2019-05-13T04:09:36.448Z,3.80
2019-05-13T04:12:04.763Z,3.80
2019-05-13T04:14:34.183Z,3.70
2019-05-13T04:17:03.766Z,3.70
2019-05-13T04:19:34.057Z,3.70
2019-05-13T04:22:04.648Z,3.70
2019-05-13T04:24:34.013Z,3.70
2019-05-13T04:27:03.593Z,3.70
2019-05-13T04:29:33.623Z,3.70
2019-05-13T04:32:03.173Z,3.80
2019-05-13T04:34:33.695Z,3.80
2019-05-13T04:37:03.640Z,3.80
2019-05-13T04:39:45.219Z,3.80
2019-05-13T04:42:04.039Z,3.90
2019-05-13T04:44:33.387Z,3.90
2019-05-13T04:47:03.922Z,4.00
2019-05-13T04:49:33.563Z,4.00
2019-05-13T04:52:03.638Z,4.10
2019-05-13T04:54:33.732Z,4.10
2019-05-13T04:57:03.499Z,4.20
2019-05-13T04:59:35.759Z,4.20
2019-05-13T05:02:22.537Z,4.30
2019-05-13T05:05:04.021Z,4.40
2019-05-13T05:08:06.459Z,4.50
2019-05-13T05:10:50.202Z,4.60
2019-05-13T05:13:39.379Z,4.70
2019-05-13T05:16:32.597Z,4.70
2019-05-13T05:19:32.101Z,4.80
2019-05-13T05:22:15.610Z,4.90
2019-05-13T05:25:22.068Z,5.00
2019-05-13T05:28:12.518Z,5.00
2019-05-13T05:31:03.219Z,5.10
2019-05-13T05:33:52.343Z,5.20
2019-05-13T05:36:53.849Z,5.30
2019-05-13T05:39:25.276Z,5.40
2019-05-13T05:41:57.002Z,5.40
2019-05-13T05:44:28.715Z,5.50
2019-05-13T05:47:04.021Z,5.60
2019-05-13T05:49:33.359Z,5.70
2019-05-13T05:52:05.203Z,5.70
2019-05-13T05:54:37.223Z,5.80
2019-05-13T05:57:07.758Z,5.90
2019-05-13T05:59:37.966Z,5.90
2019-05-13T06:02:11.927Z,6.00
2019-05-13T06:04:43.034Z,6.10
2019-05-13T06:07:13.700Z,6.20
2019-05-13T06:09:42.971Z,6.20
2019-05-13T06:12:12.824Z,6.30
2019-05-13T06:14:42.487Z,6.40
2019-05-13T06:17:11.795Z,6.40
2019-05-13T06:19:41.846Z,6.50
2019-05-13T06:22:12.310Z,6.60
2019-05-13T06:24:42.304Z,6.70
2019-05-13T06:27:11.941Z,6.70
2019-05-13T06:29:42.301Z,6.80
2019-05-13T06:32:21.161Z,6.90
2019-05-13T06:34:42.870Z,6.90
2019-05-13T06:37:12.176Z,7.00
2019-05-13T06:39:42.078Z,7.10
2019-05-13T06:42:11.760Z,7.10
2019-05-13T06:44:42.152Z,7.20
2019-05-13T06:47:11.639Z,7.20
2019-05-13T06:49:42.839Z,7.30
2019-05-13T06:52:12.230Z,7.40
2019-05-13T06:54:41.992Z,7.50
2019-05-13T06:57:13.472Z,7.50
2019-05-13T06:59:43.456Z,7.60
2019-05-13T07:02:12.746Z,7.70
2019-05-13T07:04:42.995Z,7.70
2019-05-13T07:07:16.889Z,7.80
2019-05-13T07:09:43.259Z,7.90
2019-05-13T07:12:12.523Z,7.90
2019-05-13T07:14:41.813Z,8.00
2019-05-13T07:17:12.375Z,8.10
2019-05-13T07:19:41.868Z,8.10
2019-05-13T07:22:11.722Z,8.20
2019-05-13T07:24:42.078Z,8.30
2019-05-13T07:27:12.321Z,8.40
2019-05-13T07:29:42.321Z,8.40
2019-05-13T07:32:12.132Z,8.50
2019-05-13T07:34:43.888Z,8.60
2019-05-13T07:37:12.513Z,8.70
2019-05-13T07:39:42.538Z,8.90
2019-05-13T07:42:12.465Z,8.90
2019-05-13T07:44:42.291Z,9.00
2019-05-13T07:47:12.877Z,9.10
2019-05-13T07:49:42.675Z,9.30
2019-05-13T07:52:12.118Z,9.40
2019-05-13T07:54:42.045Z,9.50
2019-05-13T07:57:12.312Z,9.60
2019-05-13T07:59:42.208Z,9.60
2019-05-13T08:02:12.308Z,9.70
2019-05-13T08:04:42.226Z,9.80
2019-05-13T08:07:12.174Z,10.00
2019-05-13T08:09:42.050Z,10.10
2019-05-13T08:12:14.331Z,10.20
2019-05-13T08:14:43.661Z,10.30
2019-05-13T08:17:13.420Z,10.40
2019-05-13T08:19:42.914Z,10.50
2019-05-13T08:22:13.219Z,10.60
2019-05-13T08:24:42.762Z,10.70
2019-05-13T08:27:13.126Z,10.80
2019-05-13T08:29:42.467Z,10.90
2019-05-13T08:32:12.766Z,11.10
2019-05-13T08:34:42.078Z,11.20
2019-05-13T08:37:11.610Z,11.30
2019-05-13T08:39:41.658Z,11.40
2019-05-13T08:42:18.797Z,11.40
2019-05-13T08:44:43.123Z,11.50
2019-05-13T08:47:12.465Z,11.70
2019-05-13T08:49:41.928Z,11.90
2019-05-13T08:52:12.235Z,12.10
2019-05-13T08:54:41.981Z,12.20
2019-05-13T08:57:11.930Z,12.40
2019-05-13T08:59:42.301Z,12.50
2019-05-13T09:02:11.950Z,12.70
2019-05-13T09:04:42.176Z,12.80
2019-05-13T09:07:12.243Z,12.90
2019-05-13T09:09:42.097Z,13.00
2019-05-13T09:12:28.158Z,13.10
2019-05-13T09:14:43.428Z,13.20
2019-05-13T09:17:12.721Z,13.30
2019-05-13T09:19:42.003Z,13.30
2019-05-13T09:22:12.415Z,13.30
2019-05-13T09:24:42.625Z,13.40
2019-05-13T09:27:12.293Z,13.30
2019-05-13T09:29:42.670Z,13.30
2019-05-13T09:32:12.412Z,13.30
2019-05-13T09:34:42.326Z,13.30
2019-05-13T09:37:12.170Z,13.30
2019-05-13T09:39:41.663Z,13.30
2019-05-13T09:42:12.618Z,13.20
2019-05-13T09:44:42.502Z,13.20
2019-05-13T09:47:12.878Z,13.20
2019-05-13T09:49:42.618Z,13.30
2019-05-13T09:52:12.155Z,13.40
2019-05-13T09:54:44.508Z,13.40
2019-05-13T09:57:15.487Z,13.40
2019-05-13T09:59:44.854Z,13.50
2019-05-13T10:02:14.132Z,13.60
2019-05-13T10:04:44.066Z,13.70
2019-05-13T10:07:13.632Z,13.80
2019-05-13T10:09:44.468Z,13.90
2019-05-13T10:12:14.938Z,13.90
2019-05-13T10:14:44.266Z,14.00
2019-05-13T10:17:14.634Z,14.00
2019-05-13T10:19:44.046Z,14.00
2019-05-13T10:22:13.406Z,14.00
2019-05-13T10:24:42.775Z,14.10
2019-05-13T10:27:12.607Z,14.10
2019-05-13T10:29:42.939Z,14.20
2019-05-13T10:32:13.346Z,14.20
2019-05-13T10:34:43.025Z,14.30
2019-05-13T10:37:12.460Z,14.40
2019-05-13T10:39:41.851Z,14.40
2019-05-13T10:42:12.125Z,14.50
2019-05-13T10:44:42.353Z,14.50
2019-05-13T10:47:12.221Z,14.50
2019-05-13T10:49:42.520Z,14.50
2019-05-13T10:52:12.497Z,14.50
2019-05-13T10:54:41.890Z,14.50
2019-05-13T10:57:13.769Z,14.60
2019-05-13T10:59:42.429Z,14.60
2019-05-13T11:02:13.276Z,14.60
2019-05-13T11:04:42.949Z,14.70
2019-05-13T11:07:12.304Z,14.70
2019-05-13T11:09:42.024Z,14.70
2019-05-13T11:12:12.471Z,14.90
2019-05-13T11:14:46.759Z,14.90
2019-05-13T11:17:13.972Z,15.00
2019-05-13T11:19:43.266Z,15.10
2019-05-13T11:22:12.575Z,15.10
2019-05-13T11:24:43.197Z,15.10
2019-05-13T11:27:12.815Z,15.10
2019-05-13T11:29:42.097Z,15.20
2019-05-13T11:32:13.201Z,15.20
2019-05-13T11:34:42.367Z,15.20
2019-05-13T11:37:12.285Z,15.30
2019-05-13T11:39:42.872Z,15.40
2019-05-13T11:42:13.759Z,15.40
2019-05-13T11:44:43.257Z,15.50
2019-05-13T11:47:12.907Z,15.60
2019-05-13T11:49:42.674Z,15.60
2019-05-13T11:52:12.263Z,15.50
2019-05-13T11:54:42.569Z,15.50
2019-05-13T11:57:12.560Z,15.50
2019-05-13T11:59:42.934Z,15.60
2019-05-13T12:02:13.783Z,15.60
2019-05-13T12:04:44.012Z,15.80
2019-05-13T12:07:14.573Z,15.90
2019-05-13T12:09:43.919Z,16.00
2019-05-13T12:12:13.570Z,15.90
2019-05-13T12:15:14.986Z,16.00
2019-05-13T12:17:14.521Z,16.00
2019-05-13T12:19:43.986Z,16.10
2019-05-13T12:22:13.490Z,16.20
2019-05-13T12:24:42.877Z,16.30
2019-05-13T12:27:12.158Z,16.40
2019-05-13T12:29:43.086Z,16.50
2019-05-13T12:32:13.731Z,16.60
2019-05-13T12:34:45.869Z,16.70
2019-05-13T12:37:14.191Z,16.80
2019-05-13T12:39:44.062Z,17.00
2019-05-13T12:42:14.574Z,17.20
2019-05-13T12:45:00.534Z,17.20
2019-05-13T12:47:14.833Z,17.30
2019-05-13T12:49:44.269Z,17.40
2019-05-13T12:52:13.676Z,17.60
2019-05-13T12:54:44.181Z,17.90
2019-05-13T12:57:16.137Z,18.30
2019-05-13T12:59:46.126Z,18.60
2019-05-13T13:02:15.487Z,18.80
2019-05-13T13:05:07.940Z,19.10
2019-05-13T13:07:15.806Z,19.30
2019-05-13T13:09:45.074Z,19.50
2019-05-13T13:12:14.466Z,19.60
2019-05-13T13:14:44.691Z,19.70
2019-05-13T13:17:15.306Z,19.80
2019-05-13T13:19:44.595Z,19.90
2019-05-13T13:22:13.910Z,20.00
2019-05-13T13:24:50.723Z,20.30
2019-05-13T13:27:21.071Z,20.40
2019-05-13T13:29:45.199Z,20.50
2019-05-13T13:32:14.491Z,20.40
2019-05-13T13:34:44.302Z,20.50
2019-05-13T13:37:13.826Z,20.70
2019-05-13T13:39:43.593Z,20.90
2019-05-13T13:42:14.027Z,21.10
2019-05-13T13:44:43.311Z,21.00
2019-05-13T13:47:14.721Z,20.90
2019-05-13T13:49:44.095Z,20.90
2019-05-13T13:52:16.114Z,21.10
2019-05-13T13:54:44.646Z,21.20
2019-05-13T13:57:13.995Z,21.30
2019-05-13T14:00:15.047Z,21.40
2019-05-13T14:02:14.354Z,21.60
2019-05-13T14:04:43.630Z,21.60
2019-05-13T14:07:26.536Z,21.60
2019-05-13T14:09:44.353Z,21.40
2019-05-13T14:12:13.639Z,21.20
2019-05-13T14:14:42.913Z,21.20
2019-05-13T14:17:12.192Z,21.20
2019-05-13T14:19:42.239Z,21.10
2019-05-13T14:22:12.520Z,21.10
2019-05-13T14:24:42.643Z,21.20
2019-05-13T14:27:12.337Z,21.20
2019-05-13T14:29:48.428Z,21.30
2019-05-13T14:32:12.703Z,21.50
2019-05-13T14:34:42.231Z,21.60
2019-05-13T14:37:11.850Z,21.70
2019-05-13T14:39:41.595Z,21.80
2019-05-13T14:42:11.570Z,22.00
2019-05-13T14:44:41.403Z,22.10
2019-05-13T14:47:12.481Z,22.30
2019-05-13T14:49:42.414Z,22.70
2019-05-13T14:52:13.031Z,22.90
2019-05-13T14:54:43.285Z,23.10
2019-05-13T14:57:14.961Z,23.20
2019-05-13T14:59:44.811Z,23.30
2019-05-13T15:02:14.114Z,23.40
2019-05-13T15:04:43.379Z,23.40
2019-05-13T15:07:12.951Z,23.50
2019-05-13T15:09:42.340Z,23.40
2019-05-13T15:12:11.627Z,23.40
2019-05-13T15:14:42.951Z,23.60
2019-05-13T15:17:12.758Z,23.80
2019-05-13T15:19:42.384Z,23.80
2019-05-13T15:22:15.551Z,23.60
2019-05-13T15:24:42.644Z,23.60
2019-05-13T15:27:11.955Z,23.40
2019-05-13T15:29:41.811Z,23.30
2019-05-13T15:32:11.405Z,23.40
2019-05-13T15:34:42.499Z,23.60
2019-05-13T15:37:11.934Z,23.70
2019-05-13T15:39:42.585Z,23.70
2019-05-13T15:42:12.160Z,23.70
2019-05-13T15:44:41.469Z,23.60
2019-05-13T15:47:22.770Z,23.40
2019-05-13T15:49:41.748Z,23.00
2019-05-13T15:52:11.739Z,22.70
2019-05-13T15:54:42.479Z,22.40
2019-05-13T15:57:12.087Z,22.10
2019-05-13T15:59:41.669Z,21.80
2019-05-13T16:02:11.866Z,21.40
2019-05-13T16:04:49.918Z,21.10
2019-05-13T16:07:13.425Z,21.10
2019-05-13T16:09:42.712Z,21.00
2019-05-13T16:12:12.280Z,20.80
2019-05-13T16:14:42.085Z,20.60
2019-05-13T16:17:12.258Z,20.70
2019-05-13T16:19:42.150Z,20.70
2019-05-13T16:22:11.981Z,20.70
2019-05-13T16:24:41.690Z,20.60
2019-05-13T16:27:11.873Z,20.50
2019-05-13T16:29:42.235Z,20.40
2019-05-13T16:32:12.112Z,20.30
2019-05-13T16:34:42.260Z,20.20
2019-05-13T16:37:12.974Z,20.10
2019-05-13T16:39:42.331Z,20.10
2019-05-13T16:42:11.795Z,20.10
2019-05-13T16:44:42.977Z,20.10
2019-05-13T16:47:12.538Z,20.10
2019-05-13T16:49:41.822Z,19.90
2019-05-13T16:52:11.656Z,19.90
2019-05-13T16:54:42.480Z,19.90
2019-05-13T16:57:11.969Z,19.90
2019-05-13T16:59:41.267Z,19.90
2019-05-13T17:02:12.645Z,19.90
2019-05-13T17:04:41.605Z,20.00
2019-05-13T17:07:17.214Z,19.90
2019-05-13T17:09:46.517Z,19.80
2019-05-13T17:12:16.044Z,19.80
2019-05-13T17:14:45.472Z,19.70
2019-05-13T17:17:14.743Z,19.80
2019-05-13T17:19:44.035Z,19.70
2019-05-13T17:22:13.887Z,19.50
2019-05-13T17:24:43.298Z,19.50
2019-05-13T17:27:12.594Z,19.50
2019-05-13T17:29:42.151Z,19.60
2019-05-13T17:32:11.761Z,19.70
2019-05-13T17:34:43.662Z,19.70
2019-05-13T17:37:12.204Z,19.60
2019-05-13T17:39:41.672Z,19.50
2019-05-13T17:42:12.154Z,19.40
2019-05-13T17:44:45.876Z,19.20
2019-05-13T17:47:13.379Z,19.10
2019-05-13T17:49:42.682Z,18.90
2019-05-13T17:52:11.958Z,18.90
2019-05-13T17:54:42.827Z,19.00
2019-05-13T17:57:12.445Z,19.00
2019-05-13T17:59:41.962Z,19.10
2019-05-13T18:02:11.887Z,19.20
2019-05-13T18:04:41.720Z,19.20
2019-05-13T18:07:12.165Z,19.20
2019-05-13T18:09:42.358Z,19.10
2019-05-13T18:12:11.795Z,19.00
2019-05-13T18:14:41.334Z,18.80
2019-05-13T18:17:12.553Z,18.70
2019-05-13T18:19:42.250Z,18.60
2019-05-13T18:22:11.711Z,18.40
2019-05-13T18:24:41.009Z,18.30
2019-05-13T18:27:12.234Z,18.20
2019-05-13T18:29:41.995Z,18.10
2019-05-13T18:32:12.313Z,18.00
2019-05-13T18:34:41.873Z,17.90
2019-05-13T18:37:11.902Z,17.80
2019-05-13T18:39:41.723Z,17.70
2019-05-13T18:42:11.612Z,17.60
2019-05-13T18:44:42.139Z,17.50
2019-05-13T18:47:12.161Z,17.50
2019-05-13T18:49:42.292Z,17.40
2019-05-13T18:52:11.899Z,17.20
2019-05-13T18:54:42.096Z,17.00
2019-05-13T18:57:12.367Z,16.90
2019-05-13T18:59:41.809Z,16.70
2019-05-13T19:02:12.287Z,16.50
2019-05-13T19:04:41.948Z,16.30
2019-05-13T19:07:11.247Z,16.10
2019-05-13T19:09:41.781Z,16.00
2019-05-13T19:12:11.752Z,15.90
2019-05-13T19:14:41.343Z,15.70
2019-05-13T19:17:12.331Z,15.60
2019-05-13T19:19:42.196Z,15.50
2019-05-13T19:22:12.318Z,15.40
2019-05-13T19:24:42.820Z,15.30
2019-05-13T19:27:12.245Z,15.20
2019-05-13T19:29:42.443Z,15.10
2019-05-13T19:32:12.516Z,15.00
2019-05-13T19:34:42.492Z,14.90
2019-05-13T19:37:11.930Z,14.80
2019-05-13T19:39:41.261Z,14.60
2019-05-13T19:42:11.574Z,14.50
2019-05-13T19:44:42.058Z,14.40
2019-05-13T19:47:12.740Z,14.30
2019-05-13T19:49:46.116Z,14.20
2019-05-13T19:52:13.140Z,14.10
2019-05-13T19:54:43.394Z,14.00
2019-05-13T19:57:12.666Z,13.90
2019-05-13T19:59:43.221Z,13.80
2019-05-13T20:02:12.555Z,13.70
2019-05-13T20:04:41.891Z,13.60
2019-05-13T20:07:11.891Z,13.50
2019-05-13T20:09:42.579Z,13.40
2019-05-13T20:12:12.106Z,13.30
2019-05-13T20:14:41.528Z,13.20
2019-05-13T20:17:12.296Z,13.20
2019-05-13T20:19:50.249Z,13.00
2019-05-13T20:22:12.845Z,13.00
2019-05-13T20:24:42.222Z,12.90
2019-05-13T20:27:12.036Z,12.80
2019-05-13T20:29:41.766Z,12.70
2019-05-13T20:32:11.750Z,12.60
2019-05-13T20:34:42.058Z,12.50
2019-05-13T20:37:12.460Z,12.50
2019-05-13T20:39:42.507Z,12.40
2019-05-13T20:42:12.532Z,12.30
2019-05-13T20:44:42.100Z,12.20
2019-05-13T20:47:11.470Z,12.10
2019-05-13T20:49:41.806Z,12.10
2019-05-13T20:52:15.117Z,11.90
2019-05-13T20:54:42.277Z,11.90
2019-05-13T20:57:11.554Z,11.80
2019-05-13T20:59:41.496Z,11.70
2019-05-13T21:02:12.492Z,11.70
2019-05-13T21:04:41.962Z,11.60
2019-05-13T21:07:11.226Z,11.60
2019-05-13T21:09:42.308Z,11.50
2019-05-13T21:12:12.724Z,11.40
2019-05-13T21:14:42.006Z,11.40
2019-05-13T21:17:12.269Z,11.30
2019-05-13T21:19:42.865Z,11.20
2019-05-13T21:22:12.339Z,11.20
2019-05-13T21:24:41.646Z,11.20
2019-05-13T21:27:11.869Z,11.10
2019-05-13T21:29:41.639Z,11.10
2019-05-13T21:32:11.974Z,11.10
2019-05-13T21:34:41.251Z,11.00
2019-05-13T21:37:11.554Z,11.00
2019-05-13T21:39:41.346Z,10.90
2019-05-13T21:42:11.421Z,10.90
2019-05-13T21:44:42.045Z,10.90
2019-05-13T21:47:11.530Z,10.80
2019-05-13T21:49:42.325Z,10.80
2019-05-13T21:52:11.909Z,10.70
2019-05-13T21:54:42.162Z,10.80
2019-05-13T21:57:11.816Z,10.70
2019-05-13T21:59:41.500Z,10.70
2019-05-13T22:02:11.189Z,10.60
2019-05-13T22:04:41.263Z,10.60
2019-05-13T22:07:12.210Z,10.60
2019-05-13T22:09:42.258Z,10.50
2019-05-13T22:12:12.815Z,10.50
2019-05-13T22:14:42.089Z,10.50
2019-05-13T22:17:12.306Z,10.50
2019-05-13T22:19:42.089Z,10.40
2019-05-13T22:22:11.678Z,10.40
2019-05-13T22:24:41.781Z,10.40
2019-05-13T22:27:13.196Z,10.40
2019-05-13T22:29:42.322Z,10.30
2019-05-13T22:32:11.604Z,10.30
2019-05-13T22:34:41.912Z,10.20
2019-05-13T22:37:11.808Z,10.20
2019-05-13T22:39:42.151Z,10.20
2019-05-13T22:42:12.431Z,10.20
2019-05-13T22:44:41.993Z,10.10
2019-05-13T22:47:13.299Z,10.20
2019-05-13T22:49:42.261Z,10.10
2019-05-13T22:52:11.606Z,10.10
2019-05-13T22:54:41.328Z,10.10
2019-05-13T22:57:11.917Z,10.00
2019-05-13T22:59:41.670Z,10.00
2019-05-13T23:02:11.087Z,10.00
2019-05-13T23:04:41.866Z,9.90
2019-05-13T23:07:11.760Z,9.90
2019-05-13T23:09:41.725Z,9.90
2019-05-13T23:12:12.478Z,9.90
2019-05-13T23:14:41.774Z,9.80
2019-05-13T23:17:12.466Z,9.80
2019-05-13T23:19:42.004Z,9.70
2019-05-13T23:22:12.064Z,9.70
2019-05-13T23:24:41.832Z,9.70
2019-05-13T23:27:11.260Z,9.70
2019-05-13T23:29:41.190Z,9.60
2019-05-13T23:32:12.038Z,9.60
2019-05-13T23:34:42.247Z,9.50
2019-05-13T23:37:11.778Z,9.50
2019-05-13T23:39:41.695Z,9.50
2019-05-13T23:42:12.237Z,9.40
2019-05-13T23:44:42.386Z,9.40
2019-05-13T23:47:11.782Z,9.40
2019-05-13T23:49:42.399Z,9.40
2019-05-13T23:52:11.992Z,9.40
2019-05-13T23:54:42.523Z,9.40
2019-05-13T23:57:12.109Z,9.40
2019-05-13T23:59:42.106Z,9.40
